Time;durP1;ratioP1;P1;durP2;ratioP2;P2;SDS_P1;SDS_P2;PMS_P1;PMS_P2;Temp;Humidity;BMP_temperature;BMP_pressure;BME280_temperature;BME280_humidity;BME280_pressure;Samples;Min_cycle;Max_cycle;Signal;HPM_P1;HPM_P2
2022/03/22 00:02:23;;;;;;;60.17;39.53;;;4.90;99.90;;;;;;5015468;28;20038;-70
2022/03/22 00:04:49;;;;;;;58.50;38.55;;;4.90;99.90;;;;;;4998163;28;20046;-70
2022/03/22 00:07:15;;;;;;;63.58;39.33;;;4.90;99.90;;;;;;5015137;28;20046;-71
2022/03/22 00:09:40;;;;;;;61.72;39.80;;;4.90;99.90;;;;;;4998268;28;20049;-71
2022/03/22 00:12:07;;;;;;;57.70;40.13;;;4.90;99.90;;;;;;5015046;28;20041;-72
2022/03/22 00:14:33;;;;;;;61.97;40.20;;;4.90;99.90;;;;;;5014916;28;20050;-71
2022/03/22 00:16:58;;;;;;;62.25;41.15;;;4.90;99.90;;;;;;5014885;28;20384;-75
2022/03/22 00:19:24;;;;;;;57.58;40.15;;;4.90;99.90;;;;;;5015137;28;20131;-70
2022/03/22 00:21:50;;;;;;;62.50;42.33;;;5.00;99.90;;;;;;4997873;28;20081;-74
2022/03/22 00:24:16;;;;;;;65.57;40.78;;;4.90;99.90;;;;;;4997992;28;20042;-72
2022/03/22 00:26:41;;;;;;;61.38;41.50;;;4.90;99.90;;;;;;5013870;28;20107;-71
2022/03/22 00:29:07;;;;;;;66.43;44.30;;;4.90;99.90;;;;;;4997662;28;20386;-71
2022/03/22 00:31:32;;;;;;;62.78;41.45;;;5.00;99.90;;;;;;5014604;28;20041;-70
2022/03/22 00:33:58;;;;;;;68.22;42.33;;;5.00;99.90;;;;;;4997556;28;20049;-71
2022/03/22 00:36:23;;;;;;;67.20;42.80;;;5.00;99.90;;;;;;4996575;28;20058;-72
2022/03/22 00:38:49;;;;;;;67.40;43.92;;;5.00;99.90;;;;;;4997588;28;20382;-70
2022/03/22 00:41:17;;;;;;;65.63;42.25;;;5.10;99.90;;;;;;5014835;28;20050;-73
2022/03/22 00:43:43;;;;;;;69.55;42.70;;;5.20;99.90;;;;;;5015029;28;20103;-71
2022/03/22 00:46:09;;;;;;;63.33;42.75;;;5.20;99.90;;;;;;5014881;28;20045;-72
2022/03/22 00:48:35;;;;;;;71.05;44.42;;;5.30;99.90;;;;;;5014694;28;20049;-71
2022/03/22 00:51:01;;;;;;;66.50;43.90;;;5.40;99.90;;;;;;4997788;28;20115;-73
2022/03/22 00:53:27;;;;;;;66.43;43.63;;;5.40;99.90;;;;;;5014997;28;20136;-71
2022/03/22 00:55:52;;;;;;;71.60;43.25;;;5.40;99.90;;;;;;5014734;28;20061;-71
2022/03/22 00:58:19;;;;;;;70.80;44.17;;;5.40;99.90;;;;;;5014649;28;20042;-71
2022/03/22 01:00:47;;;;;;;67.78;44.25;;;5.40;99.90;;;;;;5014243;28;20477;-72
2022/03/22 01:03:14;;;;;;;64.25;43.53;;;5.50;99.90;;;;;;5014691;28;20424;-72
2022/03/22 01:05:40;;;;;;;60.60;41.40;;;5.40;99.90;;;;;;5014732;28;20034;-72
2022/03/22 01:08:08;;;;;;;66.32;43.33;;;5.40;99.90;;;;;;5018263;28;20121;-72
2022/03/22 01:10:37;;;;;;;68.47;43.38;;;5.40;99.90;;;;;;5018036;28;20352;-71
2022/03/22 01:13:03;;;;;;;62.22;42.08;;;5.40;99.90;;;;;;5017963;28;20132;-73
2022/03/22 01:15:33;;;;;;;65.82;42.97;;;5.30;99.90;;;;;;5017993;28;20362;-71
2022/03/22 01:18:05;;;;;;;65.07;42.65;;;5.30;99.90;;;;;;5001078;28;20447;-72
2022/03/22 01:20:33;;;;;;;64.30;41.72;;;5.40;99.90;;;;;;5001003;28;20049;-72
2022/03/22 01:23:00;;;;;;;61.50;43.05;;;5.30;99.90;;;;;;5018206;28;20366;-71
2022/03/22 01:25:30;;;;;;;64.95;42.10;;;5.30;99.90;;;;;;5017562;28;20054;-69
2022/03/22 01:27:56;;;;;;;64.50;41.15;;;5.30;99.90;;;;;;5017802;28;20042;-70
2022/03/22 01:30:24;;;;;;;60.58;41.88;;;5.20;99.90;;;;;;5018145;28;20073;-71
2022/03/22 01:32:51;;;;;;;67.95;42.28;;;5.10;99.90;;;;;;5017813;28;20049;-70
2022/03/22 01:35:18;;;;;;;64.95;41.50;;;5.20;99.90;;;;;;5017566;28;20069;-69
2022/03/22 01:37:47;;;;;;;60.95;40.97;;;5.20;99.90;;;;;;5017518;28;20053;-72
2022/03/22 01:40:13;;;;;;;63.53;41.45;;;5.10;99.90;;;;;;5000347;28;20057;-71
2022/03/22 01:42:40;;;;;;;61.88;41.63;;;5.00;99.90;;;;;;5000302;28;20049;-72
2022/03/22 01:45:07;;;;;;;58.97;41.35;;;5.00;99.90;;;;;;5017511;28;20052;-72
2022/03/22 01:47:35;;;;;;;64.22;40.83;;;5.00;99.90;;;;;;5017413;28;20042;-70
2022/03/22 01:50:01;;;;;;;64.63;42.53;;;5.00;99.90;;;;;;5000455;28;20085;-72
2022/03/22 01:52:26;;;;;;;63.45;42.00;;;5.00;99.90;;;;;;5017358;28;20088;-71
2022/03/22 01:54:55;;;;;;;57.13;39.75;;;4.90;99.90;;;;;;5017291;28;20096;-73
2022/03/22 01:57:23;;;;;;;63.42;41.60;;;4.90;99.90;;;;;;5000315;28;20053;-71
2022/03/22 01:59:49;;;;;;;58.08;40.35;;;5.10;99.90;;;;;;5017395;28;20093;-71
2022/03/22 02:07:45;;;;;;;65.85;41.92;;;4.70;99.90;;;;;;5017381;28;20049;-72
2022/03/22 02:10:11;;;;;;;64.40;42.88;;;4.70;99.90;;;;;;5017271;28;20092;-70
2022/03/22 02:12:38;;;;;;;68.13;42.55;;;4.60;99.90;;;;;;5017185;28;20053;-71
2022/03/22 02:15:05;;;;;;;69.20;43.13;;;4.60;99.90;;;;;;5017437;28;20045;-73
2022/03/22 02:17:30;;;;;;;63.88;43.25;;;4.60;99.90;;;;;;4999300;28;20081;-71
2022/03/22 02:19:57;;;;;;;66.70;42.55;;;4.60;99.90;;;;;;4999893;28;20049;-72
2022/03/22 02:22:33;;;;;;;65.45;44.90;;;4.70;99.90;;;;;;5017023;28;20394;-73
2022/03/22 02:24:59;;;;;;;67.22;44.58;;;4.70;99.90;;;;;;5016254;28;20092;-71
2022/03/22 02:27:28;;;;;;;64.88;43.35;;;4.70;99.90;;;;;;5017082;28;20109;-72
2022/03/22 02:29:53;;;;;;;67.88;42.67;;;4.70;99.90;;;;;;4999487;28;20058;-71
2022/03/22 02:32:23;;;;;;;67.32;44.65;;;4.70;99.90;;;;;;5016621;28;20045;-72
2022/03/22 02:34:49;;;;;;;70.55;45.70;;;4.70;99.90;;;;;;4983873;28;20050;-72
2022/03/22 02:37:15;;;;;;;65.15;43.50;;;4.80;99.90;;;;;;5016820;28;20053;-71
2022/03/22 02:39:41;;;;;;;64.63;43.88;;;4.70;99.90;;;;;;5016626;28;20054;-72
2022/03/22 02:42:07;;;;;;;67.68;43.85;;;4.70;99.90;;;;;;4999156;28;20038;-71
2022/03/22 02:44:32;;;;;;;68.60;44.38;;;4.70;99.90;;;;;;5016286;28;20052;-74
2022/03/22 02:46:58;;;;;;;66.63;43.05;;;4.70;99.90;;;;;;5016743;28;20038;-71
2022/03/22 02:49:23;;;;;;;66.15;44.67;;;4.60;99.90;;;;;;5016350;28;20124;-73
2022/03/22 02:51:49;;;;;;;69.53;45.35;;;4.60;99.90;;;;;;5016509;28;20061;-71
2022/03/22 02:54:15;;;;;;;62.95;43.65;;;4.60;99.90;;;;;;5015739;28;20045;-73
2022/03/22 02:56:40;;;;;;;75.88;46.45;;;4.60;99.90;;;;;;5016239;28;20125;-71
2022/03/22 02:59:06;;;;;;;74.18;47.38;;;4.60;99.90;;;;;;5015926;28;20117;-72
2022/03/22 03:01:32;;;;;;;76.65;47.95;;;4.60;99.90;;;;;;5016451;28;20045;-71
2022/03/22 03:04:00;;;;;;;74.55;46.40;;;4.60;99.90;;;;;;4999263;28;20359;-73
2022/03/22 03:06:28;;;;;;;70.70;46.80;;;4.60;99.90;;;;;;5015959;28;20046;-72
2022/03/22 03:08:55;;;;;;;74.95;46.90;;;4.60;99.90;;;;;;5016021;28;20455;-70
2022/03/22 03:11:21;;;;;;;72.85;46.28;;;4.60;99.90;;;;;;4998392;28;20093;-71
2022/03/22 03:16:32;;;;;;;68.63;45.17;;;4.60;99.90;;;;;;5015749;28;20049;-71
2022/03/22 03:18:57;;;;;;;72.45;43.80;;;4.70;99.90;;;;;;5015836;28;20426;-72
2022/03/22 03:21:23;;;;;;;69.85;45.85;;;4.70;99.90;;;;;;5015854;28;20038;-71
2022/03/22 03:23:48;;;;;;;67.82;46.25;;;4.60;99.90;;;;;;5015478;28;20049;-71
2022/03/22 03:26:14;;;;;;;73.97;46.25;;;4.60;99.90;;;;;;4997851;28;20382;-74
2022/03/22 03:28:39;;;;;;;71.78;46.05;;;4.50;99.90;;;;;;4997668;28;20501;-71
2022/03/22 03:31:05;;;;;;;74.97;46.90;;;4.80;99.90;;;;;;5015661;28;20096;-72
2022/03/22 03:33:30;;;;;;;70.22;46.67;;;4.50;99.90;;;;;;5015863;28;20222;-72
2022/03/22 03:35:56;;;;;;;73.53;46.92;;;4.40;99.90;;;;;;5015253;28;20054;-71
2022/03/22 03:38:22;;;;;;;70.00;45.70;;;4.40;99.90;;;;;;5015600;28;20372;-74
2022/03/22 03:43:31;;;;;;;72.47;46.13;;;4.30;99.90;;;;;;5015198;28;20057;-70
2022/03/22 03:48:41;;;;;;;69.10;44.70;;;4.30;99.90;;;;;;5015487;28;20381;-74
2022/03/22 03:51:07;;;;;;;68.35;45.50;;;4.30;99.90;;;;;;5015557;28;20042;-73
2022/03/22 03:53:35;;;;;;;77.68;45.97;;;4.30;99.90;;;;;;5014918;28;20112;-72
2022/03/22 03:56:01;;;;;;;70.43;43.95;;;4.30;99.90;;;;;;5014250;28;20077;-72
2022/03/22 03:58:26;;;;;;;65.95;43.13;;;4.20;99.90;;;;;;5014156;28;20417;-71
2022/03/22 04:00:52;;;;;;;66.45;44.05;;;4.20;99.90;;;;;;4997868;28;20064;-71
2022/03/22 04:03:17;;;;;;;70.15;44.60;;;4.40;99.90;;;;;;5015148;28;20104;-73
2022/03/22 04:05:43;;;;;;;74.90;47.33;;;4.20;99.90;;;;;;5015390;28;20050;-73
2022/03/22 04:08:10;;;;;;;65.10;43.30;;;4.10;99.90;;;;;;5014527;28;20121;-74
2022/03/22 04:10:35;;;;;;;67.90;44.40;;;4.10;99.90;;;;;;5014390;28;20132;-71
2022/03/22 04:13:01;;;;;;;65.18;44.13;;;4.10;99.90;;;;;;4997220;28;20445;-72
2022/03/22 04:15:27;;;;;;;66.07;43.53;;;4.10;99.90;;;;;;4997952;28;20481;-72
2022/03/22 04:17:53;;;;;;;65.25;44.15;;;4.00;99.90;;;;;;5015308;28;20060;-73
2022/03/22 04:20:21;;;;;;;66.10;44.05;;;4.10;99.90;;;;;;5015143;28;20438;-75
2022/03/22 04:22:47;;;;;;;68.10;44.40;;;4.10;99.90;;;;;;5014894;28;20076;-73
2022/03/22 04:25:13;;;;;;;65.38;44.15;;;4.10;99.90;;;;;;5014568;28;20565;-72
2022/03/22 04:33:07;;;;;;;68.32;43.40;;;4.00;99.90;;;;;;5015063;28;20103;-74
2022/03/22 04:35:33;;;;;;;67.03;44.70;;;4.00;99.90;;;;;;5014468;28;20050;-72
2022/03/22 04:37:58;;;;;;;69.85;44.03;;;4.10;99.90;;;;;;5015287;28;20354;-72
2022/03/22 04:40:25;;;;;;;72.22;44.63;;;4.10;99.90;;;;;;5015938;28;20480;-73
2022/03/22 04:42:51;;;;;;;67.32;46.80;;;4.00;99.90;;;;;;5018833;28;20057;-72
2022/03/22 04:45:17;;;;;;;68.15;45.97;;;4.00;99.90;;;;;;5001544;28;20045;-72
2022/03/22 04:47:46;;;;;;;71.65;46.65;;;4.00;99.90;;;;;;5018792;28;20061;-72
2022/03/22 04:50:13;;;;;;;73.07;45.08;;;4.00;99.90;;;;;;5018701;28;20563;-71
2022/03/22 04:58:08;;;;;;;74.47;45.03;;;4.00;99.90;;;;;;5020875;28;20359;-70
2022/03/22 05:00:35;;;;;;;70.78;44.67;;;4.00;99.90;;;;;;5021143;28;20468;-72
2022/03/22 05:03:01;;;;;;;66.68;43.38;;;4.00;99.90;;;;;;5017971;28;20041;-69
2022/03/22 05:08:11;;;;;;;;;;;3.90;99.90;;;;;;5018106;28;20477;-71
2022/03/22 05:10:37;;;;;;;71.18;41.92;;;3.90;99.90;;;;;;5017573;28;19921;-70
2022/03/22 05:13:04;;;;;;;65.72;41.20;;;3.90;99.90;;;;;;5018015;28;20046;-71
2022/03/22 05:15:33;;;;;;;64.57;42.20;;;3.90;99.90;;;;;;5018096;28;20038;-73
2022/03/22 05:17:59;;;;;;;61.45;41.30;;;3.80;99.90;;;;;;5018090;28;20104;-72
2022/03/22 05:20:25;;;;;;;65.85;41.75;;;3.80;99.90;;;;;;5018224;28;20049;-70
2022/03/22 05:22:51;;;;;;;63.65;41.33;;;3.80;99.90;;;;;;5018041;28;20061;-72
2022/03/22 05:25:16;;;;;;;65.05;41.72;;;3.80;99.90;;;;;;5017797;28;20081;-72
2022/03/22 05:27:42;;;;;;;65.00;42.03;;;3.80;99.90;;;;;;5017555;28;20042;-71
2022/03/22 05:30:08;;;;;;;65.05;40.13;;;3.80;99.90;;;;;;5017651;28;20045;-70
2022/03/22 05:32:34;;;;;;;66.68;42.45;;;3.70;99.90;;;;;;5018258;28;20382;-70
2022/03/22 05:34:59;;;;;;;61.83;40.60;;;3.70;99.90;;;;;;5017628;28;20046;-72
2022/03/22 05:37:25;;;;;;;63.38;40.50;;;3.70;99.90;;;;;;5017560;28;20642;-70
2022/03/22 05:39:51;;;;;;;63.92;42.78;;;3.70;99.90;;;;;;5017239;28;20061;-72
2022/03/22 05:42:17;;;;;;;59.00;40.45;;;3.60;99.90;;;;;;5017387;28;20129;-70
2022/03/22 05:44:47;;;;;;;69.07;42.63;;;3.60;99.90;;;;;;5000052;28;20046;-72
2022/03/22 05:47:13;;;;;;;68.47;43.00;;;3.70;99.90;;;;;;5017264;28;20045;-71
2022/03/22 05:49:39;;;;;;;65.68;41.47;;;3.70;99.90;;;;;;5017436;28;20049;-71
2022/03/22 05:52:06;;;;;;;65.97;42.10;;;3.70;99.90;;;;;;5016969;28;20050;-70
2022/03/22 05:54:32;;;;;;;64.10;41.10;;;3.70;99.90;;;;;;5017137;28;20057;-68
2022/03/22 05:56:58;;;;;;;62.35;42.05;;;3.70;99.90;;;;;;5017196;28;20049;-70
2022/03/22 05:59:24;;;;;;;65.40;41.13;;;3.70;99.90;;;;;;5000348;28;20378;-71
2022/03/22 06:01:50;;;;;;;61.65;41.08;;;3.80;99.90;;;;;;5017417;28;20045;-74
2022/03/22 06:04:16;;;;;;;69.88;41.35;;;3.70;99.90;;;;;;5017359;28;20348;-71
2022/03/22 06:06:42;;;;;;;70.28;42.05;;;3.80;99.90;;;;;;5017372;28;20143;-70
2022/03/22 06:09:07;;;;;;;57.78;39.85;;;3.80;99.90;;;;;;5016524;28;20121;-72
2022/03/22 06:11:37;;;;;;;65.00;41.25;;;3.80;99.90;;;;;;5016790;28;20041;-71
2022/03/22 06:14:06;;;;;;;63.70;40.30;;;3.80;99.90;;;;;;5016686;28;20582;-70
2022/03/22 06:16:32;;;;;;;64.40;40.80;;;3.90;99.90;;;;;;5016993;28;20413;-73
2022/03/22 06:18:58;;;;;;;57.75;39.33;;;3.90;99.90;;;;;;5013826;28;20054;-72
2022/03/22 06:21:24;;;;;;;55.45;38.28;;;3.90;99.90;;;;;;5016727;28;20041;-71
2022/03/22 06:23:50;;;;;;;59.75;38.17;;;4.00;99.90;;;;;;5016925;28;20060;-72
2022/03/22 06:26:16;;;;;;;68.35;39.85;;;4.00;99.90;;;;;;5015383;28;20510;-69
2022/03/22 06:28:42;;;;;;;55.88;39.00;;;4.10;99.90;;;;;;5012840;28;20140;-69
2022/03/22 06:31:08;;;;;;;60.67;40.85;;;4.10;99.90;;;;;;4996492;28;20042;-69
2022/03/22 06:33:34;;;;;;;62.05;40.03;;;4.20;99.90;;;;;;4993587;28;20505;-72
2022/03/22 06:36:00;;;;;;;58.92;39.05;;;4.20;99.90;;;;;;5013683;28;20046;-73
2022/03/22 06:38:26;;;;;;;71.72;39.83;;;4.30;99.90;;;;;;5015852;28;20053;-71
2022/03/22 06:40:52;;;;;;;56.30;38.72;;;4.40;99.90;;;;;;5016076;28;20386;-71
2022/03/22 06:43:19;;;;;;;59.88;39.22;;;4.50;99.90;;;;;;5016288;28;20077;-72
2022/03/22 06:45:46;;;;;;;61.25;39.92;;;4.50;99.90;;;;;;5015014;28;20450;-71
2022/03/22 06:48:13;;;;;;;58.80;39.20;;;4.60;99.90;;;;;;5015172;28;20105;-71
2022/03/22 06:50:39;;;;;;;61.90;40.03;;;4.70;99.90;;;;;;4979916;28;20108;-71
2022/03/22 06:53:06;;;;;;;63.58;40.03;;;4.80;99.90;;;;;;4979522;28;20466;-74
2022/03/22 06:55:33;;;;;;;64.80;40.90;;;4.90;99.90;;;;;;4996190;28;20497;-71
2022/03/22 06:57:59;;;;;;;57.22;38.13;;;5.00;99.90;;;;;;5010113;28;20038;-72
2022/03/22 07:00:28;;;;;;;59.13;37.70;;;5.10;99.90;;;;;;5015408;28;20144;-72
2022/03/22 07:02:55;;;;;;;58.67;38.95;;;5.20;99.90;;;;;;4995812;28;20057;-73
2022/03/22 07:05:21;;;;;;;56.95;38.85;;;5.30;99.90;;;;;;4995416;28;20442;-75
2022/03/22 07:07:47;;;;;;;60.25;39.17;;;5.40;99.90;;;;;;5012797;28;20117;-74
2022/03/22 07:10:15;;;;;;;56.22;40.47;;;5.50;99.90;;;;;;5015532;28;20056;-74
2022/03/22 07:12:58;;;;;;;57.58;38.42;;;5.60;99.90;;;;;;5015497;28;20048;-72
2022/03/22 07:15:31;;;;;;;62.30;38.85;;;5.70;99.90;;;;;;4997532;28;20133;-70
2022/03/22 07:17:58;;;;;;;57.83;38.22;;;5.90;99.90;;;;;;5011302;28;20116;-69
2022/03/22 07:20:24;;;;;;;66.70;38.45;;;6.00;99.90;;;;;;5015448;28;20033;-69
2022/03/22 07:22:50;;;;;;;56.78;39.00;;;6.70;99.90;;;;;;5015235;28;20049;-70
2022/03/22 07:25:16;;;;;;;57.25;38.15;;;6.30;99.90;;;;;;5015439;28;20045;-68
2022/03/22 07:27:42;;;;;;;56.55;38.10;;;6.50;99.90;;;;;;4997440;28;20049;-72
2022/03/22 07:30:11;;;;;;;56.50;37.53;;;6.70;99.90;;;;;;4997869;28;20366;-70
2022/03/22 07:32:37;;;;;;;54.05;37.70;;;6.80;99.90;;;;;;5015568;28;20049;-72
2022/03/22 07:35:03;;;;;;;52.92;36.28;;;7.00;99.90;;;;;;5014685;28;20362;-71
2022/03/22 07:37:29;;;;;;;56.40;37.03;;;7.20;99.90;;;;;;4997381;28;20432;-73
2022/03/22 07:39:58;;;;;;;51.90;36.20;;;7.30;99.90;;;;;;4997637;28;20128;-73
2022/03/22 07:42:28;;;;;;;50.08;34.40;;;7.50;99.90;;;;;;5014670;28;20107;-73
2022/03/22 07:44:59;;;;;;;55.22;36.38;;;7.60;99.90;;;;;;5014828;28;20044;-76
2022/03/22 07:47:25;;;;;;;51.38;34.45;;;7.80;99.90;;;;;;5014752;28;20056;-73
2022/03/22 07:55:20;;;;;;;45.70;32.88;;;8.40;99.90;;;;;;5014536;28;20081;-69
2022/03/22 07:57:46;;;;;;;47.95;31.75;;;8.70;99.90;;;;;;5015018;28;20080;-76
2022/03/22 08:00:12;;;;;;;50.28;32.22;;;8.90;99.90;;;;;;5011704;28;20045;-71
2022/03/22 08:02:37;;;;;;;48.13;32.20;;;9.00;99.90;;;;;;5014380;28;20107;-70
2022/03/22 08:05:05;;;;;;;45.80;32.05;;;9.30;99.90;;;;;;4997214;28;20053;-73
2022/03/22 08:07:30;;;;;;;43.95;28.90;;;9.40;99.90;;;;;;4996905;28;20053;-73
2022/03/22 08:09:56;;;;;;;41.05;27.70;;;9.60;99.90;;;;;;5014533;28;20033;-74
2022/03/22 08:12:22;;;;;;;46.42;28.48;;;9.80;99.90;;;;;;4997892;28;20133;-73
2022/03/22 08:14:47;;;;;;;38.88;27.95;;;9.90;99.90;;;;;;5012650;28;20042;-74
2022/03/22 08:17:13;;;;;;;42.78;27.10;;;10.10;99.90;;;;;;5014756;28;20057;-72
2022/03/22 08:19:39;;;;;;;37.10;26.55;;;10.20;99.90;;;;;;5014542;28;20046;-73
2022/03/22 08:22:05;;;;;;;41.40;26.90;;;10.30;99.90;;;;;;4994095;28;20119;-73
2022/03/22 08:24:31;;;;;;;37.83;25.10;;;10.40;99.90;;;;;;4997705;28;20073;-73
2022/03/22 08:26:56;;;;;;;37.47;24.50;;;10.40;99.90;;;;;;5014323;28;20144;-72
2022/03/22 08:29:22;;;;;;;37.38;25.77;;;10.50;99.90;;;;;;4999117;28;20048;-73
2022/03/22 08:31:48;;;;;;;37.78;25.33;;;10.70;99.90;;;;;;5000723;28;20355;-73
2022/03/22 08:34:13;;;;;;;35.95;25.15;;;10.80;99.90;;;;;;5013397;28;20117;-77
2022/03/22 08:36:39;;;;;;;36.80;24.98;;;10.90;99.90;;;;;;5012879;28;20143;-73
2022/03/22 08:39:04;;;;;;;44.03;25.05;;;11.00;99.90;;;;;;5013813;28;20360;-71
2022/03/22 08:41:31;;;;;;;37.80;23.80;;;11.10;99.90;;;;;;5013532;28;20449;-75
2022/03/22 08:43:57;;;;;;;32.58;25.23;;;11.20;99.90;;;;;;4990858;28;20042;-73
2022/03/22 08:46:24;;;;;;;36.60;24.50;;;11.20;99.90;;;;;;5014511;28;20120;-73
2022/03/22 08:48:51;;;;;;;40.17;24.95;;;11.30;99.90;;;;;;5012382;28;20056;-72
2022/03/22 08:51:19;;;;;;;41.30;23.77;;;11.40;99.90;;;;;;5001121;28;20050;-74
2022/03/22 08:53:44;;;;;;;38.97;24.20;;;11.50;99.90;;;;;;4997982;28;20105;-74
2022/03/22 08:56:11;;;;;;;37.70;23.90;;;11.70;99.90;;;;;;4982542;28;20049;-75
2022/03/22 08:58:37;;;;;;;35.20;23.77;;;11.70;99.90;;;;;;4982608;28;20053;-72
2022/03/22 09:01:03;;;;;;;34.65;23.05;;;11.80;99.90;;;;;;5009568;28;20072;-74
2022/03/22 09:03:31;;;;;;;33.40;23.00;;;12.00;99.90;;;;;;5014535;28;20510;-74
2022/03/22 09:06:09;;;;;;;32.85;23.15;;;12.20;99.90;;;;;;5014130;28;20462;-72
2022/03/22 09:08:36;;;;;;;35.10;22.80;;;12.30;99.90;;;;;;5009549;28;20101;-71
2022/03/22 09:11:02;;;;;;;34.10;22.80;;;12.40;99.90;;;;;;4999069;28;20099;-73
2022/03/22 09:13:28;;;;;;;34.38;23.60;;;12.50;99.90;;;;;;4996003;28;20418;-71
2022/03/22 09:15:54;;;;;;;32.22;23.45;;;12.60;99.90;;;;;;5014474;28;20049;-72
2022/03/22 09:18:22;;;;;;;36.10;23.25;;;12.70;99.90;;;;;;5013920;28;20046;-75
2022/03/22 09:20:49;;;;;;;35.20;23.60;;;12.80;99.90;;;;;;5013840;28;20135;-74
2022/03/22 09:23:16;;;;;;;37.55;24.23;;;12.90;99.90;;;;;;5014287;28;20061;-70
2022/03/22 09:25:43;;;;;;;39.47;24.10;;;13.00;99.90;;;;;;5013943;28;20394;-72
2022/03/22 09:28:10;;;;;;;35.53;23.38;;;13.10;99.90;;;;;;5016694;28;20421;-75
2022/03/22 09:30:38;;;;;;;37.80;23.58;;;13.20;99.90;;;;;;5017962;28;20121;-74
2022/03/22 09:33:05;;;;;;;37.85;22.85;;;13.20;99.90;;;;;;5017809;28;20046;-73
2022/03/22 09:35:31;;;;;;;42.33;23.42;;;13.30;99.90;;;;;;5017243;28;20145;-74
2022/03/22 09:37:59;;;;;;;34.85;22.75;;;13.30;99.90;;;;;;5000108;28;20062;-73
2022/03/22 09:40:26;;;;;;;34.65;23.08;;;13.40;99.90;;;;;;5000865;28;20121;-75
2022/03/22 09:42:54;;;;;;;35.88;21.95;;;13.50;99.90;;;;;;5000398;28;20111;-74
2022/03/22 09:45:27;;;;;;;34.20;22.75;;;13.70;99.90;;;;;;5016930;28;20049;-72
2022/03/22 09:47:54;;;;;;;36.33;22.70;;;13.80;99.90;;;;;;5017464;28;20465;-72
2022/03/22 09:50:20;;;;;;;35.67;21.67;;;13.90;99.90;;;;;;5017376;28;20122;-74
2022/03/22 09:52:46;;;;;;;33.80;21.30;;;13.90;99.90;;;;;;5000587;28;20442;-73
2022/03/22 09:55:13;;;;;;;31.27;21.50;;;14.00;99.90;;;;;;5017121;28;20351;-73
2022/03/22 09:57:39;;;;;;;29.50;20.70;;;14.10;99.90;;;;;;5017361;28;20042;-73
2022/03/22 10:00:07;;;;;;;35.53;22.02;;;14.20;99.90;;;;;;5016846;28;20076;-72
2022/03/22 10:02:35;;;;;;;35.25;21.70;;;14.30;99.90;;;;;;5016700;28;20461;-73
2022/03/22 10:05:01;;;;;;;31.88;19.92;;;14.40;99.90;;;;;;5017399;28;20050;-71
2022/03/22 10:07:27;;;;;;;36.78;22.98;;;14.50;99.90;;;;;;5017098;28;20053;-72
2022/03/22 10:09:59;;;;;;;38.60;22.42;;;14.60;99.90;;;;;;5017082;28;20125;-74
2022/03/22 10:12:35;;;;;;;31.35;19.42;;;14.70;99.90;;;;;;5016999;28;20465;-73
2022/03/22 10:15:15;;;;;;;29.42;19.52;;;14.80;99.90;;;;;;5000525;28;20077;-73
2022/03/22 10:17:43;;;;;;;27.58;18.08;;;14.90;99.90;;;;;;5017234;28;20394;-73
2022/03/22 10:20:19;;;;;;;36.55;20.38;;;15.00;99.90;;;;;;5016927;28;20046;-74
2022/03/22 10:22:45;;;;;;;29.05;18.25;;;15.10;99.90;;;;;;5016700;28;20052;-74
2022/03/22 10:25:11;;;;;;;32.95;21.85;;;15.10;99.90;;;;;;5016666;28;20050;-75
2022/03/22 10:27:37;;;;;;;30.00;20.63;;;15.20;99.90;;;;;;5017125;28;20123;-72
2022/03/22 10:30:07;;;;;;;34.13;22.48;;;15.30;99.90;;;;;;4999144;28;20362;-74
2022/03/22 10:32:39;;;;;;;34.67;21.30;;;15.40;99.90;;;;;;5000293;28;20068;-74
2022/03/22 10:35:31;;;;;;;37.88;21.35;;;15.50;99.90;;;;;;5016525;28;20049;-73
2022/03/22 10:38:02;;;;;;;32.13;21.08;;;15.50;99.90;;;;;;5016464;28;20459;-74
2022/03/22 10:40:48;;;;;;;29.83;19.00;;;15.60;99.90;;;;;;5016143;28;20042;-73
2022/03/22 10:43:23;;;;;;;33.72;21.23;;;15.70;99.90;;;;;;5016590;28;20060;-75
2022/03/22 10:46:00;;;;;;;36.72;22.40;;;15.80;99.90;;;;;;5016682;28;20049;-74
2022/03/22 10:48:36;;;;;;;33.53;20.13;;;16.00;99.90;;;;;;5015758;28;20049;-73
2022/03/22 10:51:05;;;;;;;32.83;22.77;;;16.20;99.90;;;;;;4998929;28;20092;-73
2022/03/22 10:53:34;;;;;;;36.35;23.38;;;16.20;99.90;;;;;;4999211;28;20054;-75
2022/03/22 10:56:02;;;;;;;35.53;22.45;;;16.30;99.90;;;;;;5016621;28;20068;-73
2022/03/22 10:58:30;;;;;;;35.55;23.55;;;16.20;99.90;;;;;;5016049;28;20060;-73
2022/03/22 11:00:57;;;;;;;37.15;24.02;;;16.20;99.90;;;;;;5015768;28;20054;-74
2022/03/22 11:03:24;;;;;;;36.60;24.25;;;16.30;99.90;;;;;;5016123;28;20038;-75
2022/03/22 11:05:52;;;;;;;35.08;23.23;;;16.40;99.90;;;;;;5016245;28;20096;-73
2022/03/22 11:08:19;;;;;;;34.33;22.33;;;16.40;99.20;;;;;;4998203;28;20101;-73
2022/03/22 11:10:45;;;;;;;42.85;22.60;;;16.40;99.60;;;;;;5129485;23;20083;-74
2022/03/22 11:13:11;;;;;;;35.65;22.65;;;16.40;99.50;;;;;;4996067;28;20092;-73
2022/03/22 11:15:44;;;;;;;33.53;21.98;;;16.60;99.60;;;;;;4996217;28;20097;-73
2022/03/22 11:18:10;;;;;;;35.60;22.38;;;16.60;98.90;;;;;;4996037;28;20050;-73
2022/03/22 11:20:35;;;;;;;36.83;23.13;;;16.70;99.90;;;;;;4979204;28;20514;-74
2022/03/22 11:23:01;;;;;;;33.90;22.20;;;16.80;99.90;;;;;;4996082;28;20134;-71
2022/03/22 11:25:35;;;;;;;35.53;21.92;;;16.80;98.90;;;;;;4996342;28;20129;-75
2022/03/22 11:28:09;;;;;;;32.83;21.02;;;16.90;99.40;;;;;;4995594;28;20467;-73
2022/03/22 11:30:36;;;;;;;30.55;21.30;;;16.90;97.40;;;;;;4995922;28;20043;-73
2022/03/22 11:35:50;;;;;;;36.30;21.98;;;17.10;97.80;;;;;;4994763;28;20096;-76
2022/03/22 11:38:42;;;;;;;31.58;20.55;;;17.10;98.20;;;;;;4978556;28;20090;-73
2022/03/22 11:44:35;;;;;;;29.83;20.40;;;17.40;98.40;;;;;;4976464;28;20050;-74
2022/03/22 11:47:05;;;;;;;36.75;22.08;;;17.50;98.70;;;;;;4976585;28;20051;-74
2022/03/22 11:49:47;;;;;;;38.92;21.30;;;17.70;96.50;;;;;;4958563;28;20055;-73
2022/03/22 11:52:13;;;;;;;32.40;21.20;;;17.70;96.40;;;;;;4976108;28;20425;-74
2022/03/22 11:54:40;;;;;;;33.08;20.55;;;17.90;96.90;;;;;;4975834;28;20424;-75
2022/03/22 11:57:07;;;;;;;33.30;20.08;;;17.80;97.60;;;;;;4975171;28;20101;-73
2022/03/22 11:59:41;;;;;;;35.65;20.42;;;17.90;97.20;;;;;;4976444;28;20364;-75
2022/03/22 12:02:13;;;;;;;36.35;20.73;;;18.10;93.60;;;;;;4959394;28;20062;-73
2022/03/22 12:04:41;;;;;;;35.83;20.50;;;18.10;93.10;;;;;;4976396;28;20132;-73
2022/03/22 12:07:10;;;;;;;33.63;20.15;;;18.10;94.60;;;;;;4976114;28;20046;-72
2022/03/22 12:09:43;;;;;;;33.83;20.58;;;18.10;96.20;;;;;;4975132;28;20049;-75
2022/03/22 12:12:13;;;;;;;28.52;19.17;;;18.20;94.60;;;;;;4990820;28;20071;-73
2022/03/22 12:14:41;;;;;;;33.15;20.92;;;18.30;94.40;;;;;;4978395;28;20077;-73
2022/03/22 12:17:06;;;;;;;29.63;19.23;;;18.40;90.80;;;;;;4995628;28;20112;-72
2022/03/22 12:19:35;;;;;;;33.03;21.67;;;18.40;93.70;;;;;;4995398;28;20054;-72
2022/03/22 12:22:02;;;;;;;32.90;20.52;;;18.50;94.40;;;;;;4977713;28;20137;-73
2022/03/22 12:24:33;;;;;;;33.03;21.60;;;18.60;92.60;;;;;;4994854;28;20050;-74
2022/03/22 12:27:03;;;;;;;34.17;21.73;;;18.60;92.30;;;;;;4995472;28;20398;-73
2022/03/22 12:29:29;;;;;;;36.85;20.00;;;18.70;90.20;;;;;;4995468;28;20073;-73
2022/03/22 12:31:55;;;;;;;35.10;21.67;;;18.60;90.60;;;;;;4978124;28;20386;-73
2022/03/22 12:34:26;;;;;;;31.15;20.42;;;18.60;89.40;;;;;;4994845;28;20049;-72
2022/03/22 12:36:53;;;;;;;36.42;19.48;;;18.70;87.00;;;;;;4995518;28;20126;-73
2022/03/22 12:39:18;;;;;;;34.13;20.52;;;18.70;86.30;;;;;;4994985;28;20054;-74
2022/03/22 12:41:44;;;;;;;35.38;20.48;;;18.70;91.70;;;;;;4981314;28;20058;-72
2022/03/22 12:44:10;;;;;;;31.20;18.83;;;18.80;92.00;;;;;;4975588;28;20035;-73
2022/03/22 12:46:36;;;;;;;34.47;19.83;;;18.90;91.40;;;;;;4975379;28;20102;-73
2022/03/22 12:49:03;;;;;;;35.65;19.92;;;18.90;92.60;;;;;;4975174;28;20337;-73
2022/03/22 12:51:31;;;;;;;32.75;20.25;;;18.90;85.00;;;;;;4975504;28;20105;-75
2022/03/22 12:53:58;;;;;;;31.98;20.08;;;19.10;85.00;;;;;;4975914;28;20047;-73
2022/03/22 12:56:24;;;;;;;33.13;20.25;;;19.00;85.20;;;;;;4975902;28;20046;-73
2022/03/22 12:58:49;;;;;;;30.42;19.25;;;19.10;85.70;;;;;;4958814;28;20058;-74
2022/03/22 13:01:16;;;;;;;32.13;19.38;;;19.20;86.50;;;;;;4976425;28;20052;-72
2022/03/22 13:03:46;;;;;;;32.30;20.48;;;19.20;87.40;;;;;;4978734;28;20059;-74
2022/03/22 13:06:12;;;;;;;39.67;22.13;;;19.10;84.80;;;;;;4978940;28;20444;-73
2022/03/22 13:11:29;;;;;;;34.33;19.85;;;19.10;86.40;;;;;;4989267;28;20051;-73
2022/03/22 13:16:51;;;;;;;36.95;20.80;;;19.30;83.80;;;;;;4998784;28;20482;-76
2022/03/22 13:19:17;;;;;;;34.47;19.88;;;19.20;81.80;;;;;;4998649;28;20370;-73